sensor_id;sensor_type;location;lat;lon;timestamp;P1;durP1;ratioP1;P2;durP2;ratioP2
19036;SDS011;9651;49.138;8.900;2022-08-19T00:01:11;15.88;;;11.13;;
19036;SDS011;9651;49.138;8.900;2022-08-19T00:05:14;12.40;;;10.50;;
19036;SDS011;9651;49.138;8.900;2022-08-19T00:09:17;13.85;;;11.05;;
19036;SDS011;9651;49.138;8.900;2022-08-19T00:13:20;14.30;;;10.70;;
19036;SDS011;9651;49.138;8.900;2022-08-19T00:17:23;16.08;;;12.40;;
19036;SDS011;9651;49.138;8.900;2022-08-19T00:21:25;14.60;;;11.68;;
19036;SDS011;9651;49.138;8.900;2022-08-19T00:25:27;14.52;;;11.13;;
19036;SDS011;9651;49.138;8.900;2022-08-19T00:29:29;14.63;;;11.75;;
19036;SDS011;9651;49.138;8.900;2022-08-19T00:33:33;14.30;;;11.20;;
19036;SDS011;9651;49.138;8.900;2022-08-19T00:37:35;13.73;;;11.82;;
19036;SDS011;9651;49.138;8.900;2022-08-19T00:41:37;16.80;;;11.55;;
19036;SDS011;9651;49.138;8.900;2022-08-19T00:45:40;14.70;;;10.90;;
19036;SDS011;9651;49.138;8.900;2022-08-19T00:49:47;15.50;;;11.05;;
19036;SDS011;9651;49.138;8.900;2022-08-19T00:53:51;17.02;;;12.50;;
19036;SDS011;9651;49.138;8.900;2022-08-19T00:57:55;17.05;;;11.30;;
19036;SDS011;9651;49.138;8.900;2022-08-19T01:01:59;14.55;;;11.48;;
19036;SDS011;9651;49.138;8.900;2022-08-19T01:06:02;16.08;;;12.13;;
19036;SDS011;9651;49.138;8.900;2022-08-19T01:10:07;16.13;;;11.50;;
19036;SDS011;9651;49.138;8.900;2022-08-19T01:14:12;18.45;;;12.00;;
19036;SDS011;9651;49.138;8.900;2022-08-19T01:18:15;15.13;;;11.88;;
19036;SDS011;9651;49.138;8.900;2022-08-19T01:26:28;16.23;;;12.88;;
19036;SDS011;9651;49.138;8.900;2022-08-19T01:30:32;17.75;;;12.55;;
19036;SDS011;9651;49.138;8.900;2022-08-19T01:34:35;17.85;;;13.10;;
19036;SDS011;9651;49.138;8.900;2022-08-19T01:38:39;16.48;;;13.00;;
19036;SDS011;9651;49.138;8.900;2022-08-19T01:42:43;16.52;;;12.73;;
19036;SDS011;9651;49.138;8.900;2022-08-19T01:46:46;17.42;;;13.32;;
19036;SDS011;9651;49.138;8.900;2022-08-19T01:50:49;18.90;;;13.20;;
19036;SDS011;9651;49.138;8.900;2022-08-19T01:54:53;19.52;;;13.07;;
19036;SDS011;9651;49.138;8.900;2022-08-19T01:58:55;17.45;;;13.80;;
19036;SDS011;9651;49.138;8.900;2022-08-19T02:03:00;16.63;;;13.27;;
19036;SDS011;9651;49.138;8.900;2022-08-19T02:07:02;17.77;;;13.90;;
19036;SDS011;9651;49.138;8.900;2022-08-19T02:11:06;17.98;;;13.65;;
19036;SDS011;9651;49.138;8.900;2022-08-19T02:15:09;17.77;;;14.35;;
19036;SDS011;9651;49.138;8.900;2022-08-19T02:19:11;19.70;;;14.18;;
19036;SDS011;9651;49.138;8.900;2022-08-19T02:23:14;20.05;;;15.35;;
19036;SDS011;9651;49.138;8.900;2022-08-19T02:27:18;19.95;;;14.75;;
19036;SDS011;9651;49.138;8.900;2022-08-19T02:31:20;18.92;;;14.95;;
19036;SDS011;9651;49.138;8.900;2022-08-19T02:35:25;19.63;;;15.30;;
19036;SDS011;9651;49.138;8.900;2022-08-19T02:39:27;20.80;;;15.88;;
19036;SDS011;9651;49.138;8.900;2022-08-19T02:43:31;19.38;;;15.10;;
19036;SDS011;9651;49.138;8.900;2022-08-19T02:47:35;22.98;;;16.70;;
19036;SDS011;9651;49.138;8.900;2022-08-19T02:51:41;24.45;;;16.50;;
19036;SDS011;9651;49.138;8.900;2022-08-19T02:55:45;20.55;;;16.38;;
19036;SDS011;9651;49.138;8.900;2022-08-19T02:59:49;20.92;;;16.00;;
19036;SDS011;9651;49.138;8.900;2022-08-19T03:03:51;25.60;;;17.48;;
19036;SDS011;9651;49.138;8.900;2022-08-19T03:07:53;19.67;;;16.77;;
19036;SDS011;9651;49.138;8.900;2022-08-19T03:11:55;21.95;;;17.50;;
19036;SDS011;9651;49.138;8.900;2022-08-19T03:15:58;22.33;;;17.88;;
19036;SDS011;9651;49.138;8.900;2022-08-19T03:20:00;21.33;;;17.80;;
19036;SDS011;9651;49.138;8.900;2022-08-19T03:24:05;21.88;;;17.30;;
19036;SDS011;9651;49.138;8.900;2022-08-19T03:28:08;21.77;;;17.55;;
19036;SDS011;9651;49.138;8.900;2022-08-19T03:32:13;25.25;;;18.42;;
19036;SDS011;9651;49.138;8.900;2022-08-19T03:36:16;20.30;;;16.85;;
19036;SDS011;9651;49.138;8.900;2022-08-19T03:40:20;21.65;;;17.52;;
19036;SDS011;9651;49.138;8.900;2022-08-19T03:44:22;22.20;;;18.35;;
19036;SDS011;9651;49.138;8.900;2022-08-19T03:48:26;22.10;;;17.23;;
19036;SDS011;9651;49.138;8.900;2022-08-19T03:52:27;24.85;;;17.85;;
19036;SDS011;9651;49.138;8.900;2022-08-19T03:56:29;21.70;;;18.98;;
19036;SDS011;9651;49.138;8.900;2022-08-19T04:00:31;22.27;;;17.48;;
19036;SDS011;9651;49.138;8.900;2022-08-19T04:04:35;22.15;;;17.63;;
19036;SDS011;9651;49.138;8.900;2022-08-19T04:08:38;22.70;;;18.65;;
19036;SDS011;9651;49.138;8.900;2022-08-19T04:12:40;23.95;;;20.08;;
19036;SDS011;9651;49.138;8.900;2022-08-19T04:16:43;24.90;;;18.73;;
19036;SDS011;9651;49.138;8.900;2022-08-19T04:20:47;24.40;;;19.15;;
19036;SDS011;9651;49.138;8.900;2022-08-19T04:24:49;23.75;;;18.67;;
19036;SDS011;9651;49.138;8.900;2022-08-19T04:28:51;24.17;;;18.50;;
19036;SDS011;9651;49.138;8.900;2022-08-19T04:32:54;25.55;;;19.23;;
19036;SDS011;9651;49.138;8.900;2022-08-19T04:36:57;33.35;;;20.77;;
19036;SDS011;9651;49.138;8.900;2022-08-19T04:41:02;24.45;;;19.48;;
19036;SDS011;9651;49.138;8.900;2022-08-19T04:45:22;24.98;;;20.13;;
19036;SDS011;9651;49.138;8.900;2022-08-19T04:49:24;22.15;;;18.15;;
19036;SDS011;9651;49.138;8.900;2022-08-19T04:53:28;26.45;;;19.45;;
19036;SDS011;9651;49.138;8.900;2022-08-19T04:57:31;24.13;;;19.67;;
19036;SDS011;9651;49.138;8.900;2022-08-19T05:01:33;22.98;;;18.98;;
19036;SDS011;9651;49.138;8.900;2022-08-19T05:05:38;26.98;;;19.88;;
19036;SDS011;9651;49.138;8.900;2022-08-19T05:09:42;22.55;;;19.30;;
19036;SDS011;9651;49.138;8.900;2022-08-19T05:13:44;21.08;;;17.75;;
19036;SDS011;9651;49.138;8.900;2022-08-19T05:17:47;21.90;;;18.42;;
19036;SDS011;9651;49.138;8.900;2022-08-19T05:22:03;22.33;;;19.25;;
19036;SDS011;9651;49.138;8.900;2022-08-19T05:26:23;23.65;;;19.83;;
19036;SDS011;9651;49.138;8.900;2022-08-19T05:30:26;24.00;;;17.95;;
19036;SDS011;9651;49.138;8.900;2022-08-19T05:34:28;22.13;;;17.00;;
19036;SDS011;9651;49.138;8.900;2022-08-19T05:38:31;22.33;;;18.98;;
19036;SDS011;9651;49.138;8.900;2022-08-19T05:42:34;22.50;;;18.10;;
19036;SDS011;9651;49.138;8.900;2022-08-19T05:46:36;22.05;;;18.25;;
19036;SDS011;9651;49.138;8.900;2022-08-19T05:50:39;22.10;;;18.50;;
19036;SDS011;9651;49.138;8.900;2022-08-19T05:54:42;21.60;;;16.92;;
19036;SDS011;9651;49.138;8.900;2022-08-19T05:58:46;23.15;;;17.70;;
19036;SDS011;9651;49.138;8.900;2022-08-19T06:02:48;21.98;;;17.40;;
19036;SDS011;9651;49.138;8.900;2022-08-19T06:06:51;21.65;;;17.02;;
19036;SDS011;9651;49.138;8.900;2022-08-19T06:10:54;24.30;;;18.38;;
19036;SDS011;9651;49.138;8.900;2022-08-19T06:14:58;24.48;;;18.52;;
19036;SDS011;9651;49.138;8.900;2022-08-19T06:19:03;21.80;;;16.95;;
19036;SDS011;9651;49.138;8.900;2022-08-19T06:23:07;26.65;;;18.80;;
19036;SDS011;9651;49.138;8.900;2022-08-19T06:27:09;21.17;;;18.10;;
19036;SDS011;9651;49.138;8.900;2022-08-19T06:31:13;20.52;;;17.00;;
19036;SDS011;9651;49.138;8.900;2022-08-19T06:35:16;19.25;;;17.13;;
19036;SDS011;9651;49.138;8.900;2022-08-19T06:39:19;20.83;;;17.58;;
19036;SDS011;9651;49.138;8.900;2022-08-19T06:43:22;21.25;;;17.23;;
19036;SDS011;9651;49.138;8.900;2022-08-19T06:47:26;20.08;;;16.50;;
19036;SDS011;9651;49.138;8.900;2022-08-19T06:51:28;20.50;;;16.17;;
19036;SDS011;9651;49.138;8.900;2022-08-19T06:55:31;19.58;;;16.55;;
19036;SDS011;9651;49.138;8.900;2022-08-19T06:59:33;19.42;;;16.80;;
19036;SDS011;9651;49.138;8.900;2022-08-19T07:03:37;20.15;;;15.38;;
19036;SDS011;9651;49.138;8.900;2022-08-19T07:07:39;17.85;;;15.45;;
19036;SDS011;9651;49.138;8.900;2022-08-19T07:11:44;20.70;;;16.35;;
19036;SDS011;9651;49.138;8.900;2022-08-19T07:15:47;21.58;;;16.15;;
19036;SDS011;9651;49.138;8.900;2022-08-19T07:19:50;18.20;;;14.35;;
19036;SDS011;9651;49.138;8.900;2022-08-19T07:23:53;18.75;;;14.95;;
19036;SDS011;9651;49.138;8.900;2022-08-19T07:27:55;16.40;;;13.30;;
19036;SDS011;9651;49.138;8.900;2022-08-19T07:31:57;19.90;;;13.90;;
19036;SDS011;9651;49.138;8.900;2022-08-19T07:36:01;16.95;;;14.23;;
19036;SDS011;9651;49.138;8.900;2022-08-19T07:40:05;16.25;;;12.93;;
19036;SDS011;9651;49.138;8.900;2022-08-19T07:44:08;15.23;;;12.52;;
19036;SDS011;9651;49.138;8.900;2022-08-19T07:48:11;17.60;;;13.38;;
19036;SDS011;9651;49.138;8.900;2022-08-19T07:52:15;15.75;;;12.90;;
19036;SDS011;9651;49.138;8.900;2022-08-19T07:56:18;13.95;;;11.75;;
19036;SDS011;9651;49.138;8.900;2022-08-19T08:00:20;14.73;;;11.35;;
19036;SDS011;9651;49.138;8.900;2022-08-19T08:04:23;13.27;;;11.70;;
19036;SDS011;9651;49.138;8.900;2022-08-19T08:08:43;16.08;;;11.90;;
19036;SDS011;9651;49.138;8.900;2022-08-19T08:13:02;12.95;;;11.57;;
19036;SDS011;9651;49.138;8.900;2022-08-19T08:17:05;16.52;;;11.30;;
19036;SDS011;9651;49.138;8.900;2022-08-19T08:21:08;15.18;;;12.27;;
19036;SDS011;9651;49.138;8.900;2022-08-19T08:25:13;15.65;;;10.68;;
19036;SDS011;9651;49.138;8.900;2022-08-19T08:29:16;15.10;;;9.65;;
19036;SDS011;9651;49.138;8.900;2022-08-19T08:33:20;16.92;;;11.07;;
19036;SDS011;9651;49.138;8.900;2022-08-19T08:37:23;12.90;;;9.95;;
19036;SDS011;9651;49.138;8.900;2022-08-19T08:41:28;11.35;;;9.68;;
19036;SDS011;9651;49.138;8.900;2022-08-19T08:45:38;10.65;;;9.25;;
19036;SDS011;9651;49.138;8.900;2022-08-19T08:49:48;10.38;;;8.60;;
19036;SDS011;9651;49.138;8.900;2022-08-19T08:53:54;13.10;;;10.30;;
19036;SDS011;9651;49.138;8.900;2022-08-19T08:58:00;11.48;;;10.25;;
19036;SDS011;9651;49.138;8.900;2022-08-19T09:02:05;10.68;;;9.55;;
19036;SDS011;9651;49.138;8.900;2022-08-19T09:06:10;11.05;;;9.40;;
19036;SDS011;9651;49.138;8.900;2022-08-19T09:10:17;13.18;;;8.93;;
19036;SDS011;9651;49.138;8.900;2022-08-19T09:14:30;10.05;;;8.95;;
19036;SDS011;9651;49.138;8.900;2022-08-19T09:18:38;10.40;;;8.60;;
19036;SDS011;9651;49.138;8.900;2022-08-19T09:22:42;13.30;;;8.80;;
19036;SDS011;9651;49.138;8.900;2022-08-19T09:26:45;10.07;;;8.63;;
19036;SDS011;9651;49.138;8.900;2022-08-19T09:30:48;10.38;;;7.95;;
19036;SDS011;9651;49.138;8.900;2022-08-19T09:34:52;11.55;;;8.00;;
19036;SDS011;9651;49.138;8.900;2022-08-19T09:38:54;10.60;;;7.50;;
19036;SDS011;9651;49.138;8.900;2022-08-19T09:42:57;8.85;;;7.53;;
19036;SDS011;9651;49.138;8.900;2022-08-19T09:47:04;9.82;;;7.20;;
19036;SDS011;9651;49.138;8.900;2022-08-19T09:51:06;10.80;;;7.85;;
19036;SDS011;9651;49.138;8.900;2022-08-19T09:55:10;14.70;;;8.38;;
19036;SDS011;9651;49.138;8.900;2022-08-19T09:59:12;11.80;;;7.97;;
19036;SDS011;9651;49.138;8.900;2022-08-19T10:03:15;9.75;;;8.35;;
19036;SDS011;9651;49.138;8.900;2022-08-19T10:07:17;9.23;;;7.82;;
19036;SDS011;9651;49.138;8.900;2022-08-19T10:11:19;8.57;;;7.55;;
19036;SDS011;9651;49.138;8.900;2022-08-19T10:15:22;9.80;;;7.50;;
19036;SDS011;9651;49.138;8.900;2022-08-19T10:19:25;10.48;;;7.70;;
19036;SDS011;9651;49.138;8.900;2022-08-19T10:23:32;7.88;;;7.03;;
19036;SDS011;9651;49.138;8.900;2022-08-19T10:27:34;8.93;;;7.47;;
19036;SDS011;9651;49.138;8.900;2022-08-19T10:31:37;8.07;;;7.03;;
19036;SDS011;9651;49.138;8.900;2022-08-19T10:35:41;8.75;;;7.32;;
19036;SDS011;9651;49.138;8.900;2022-08-19T10:39:43;10.18;;;6.88;;
19036;SDS011;9651;49.138;8.900;2022-08-19T10:43:50;7.70;;;6.95;;
19036;SDS011;9651;49.138;8.900;2022-08-19T10:47:54;8.50;;;6.97;;
19036;SDS011;9651;49.138;8.900;2022-08-19T10:51:57;8.10;;;6.45;;
19036;SDS011;9651;49.138;8.900;2022-08-19T10:56:17;6.32;;;5.75;;
19036;SDS011;9651;49.138;8.900;2022-08-19T11:00:38;6.78;;;5.80;;
19036;SDS011;9651;49.138;8.900;2022-08-19T11:04:41;6.72;;;6.05;;
19036;SDS011;9651;49.138;8.900;2022-08-19T11:08:44;6.78;;;6.18;;
19036;SDS011;9651;49.138;8.900;2022-08-19T11:12:46;5.95;;;5.45;;
19036;SDS011;9651;49.138;8.900;2022-08-19T11:16:48;6.28;;;4.10;;
19036;SDS011;9651;49.138;8.900;2022-08-19T11:20:53;4.82;;;4.25;;
19036;SDS011;9651;49.138;8.900;2022-08-19T11:24:56;4.30;;;3.90;;
19036;SDS011;9651;49.138;8.900;2022-08-19T11:28:58;4.78;;;3.97;;
19036;SDS011;9651;49.138;8.900;2022-08-19T11:33:01;4.15;;;3.78;;
19036;SDS011;9651;49.138;8.900;2022-08-19T11:37:03;3.33;;;3.03;;
19036;SDS011;9651;49.138;8.900;2022-08-19T11:41:07;3.85;;;3.50;;
19036;SDS011;9651;49.138;8.900;2022-08-19T11:45:09;3.97;;;3.60;;
19036;SDS011;9651;49.138;8.900;2022-08-19T11:49:13;5.55;;;4.25;;
19036;SDS011;9651;49.138;8.900;2022-08-19T11:53:16;4.53;;;4.13;;
19036;SDS011;9651;49.138;8.900;2022-08-19T11:57:20;4.38;;;3.63;;
19036;SDS011;9651;49.138;8.900;2022-08-19T12:01:23;3.30;;;3.10;;
19036;SDS011;9651;49.138;8.900;2022-08-19T12:05:26;4.05;;;3.65;;
19036;SDS011;9651;49.138;8.900;2022-08-19T12:09:28;5.28;;;3.78;;
19036;SDS011;9651;49.138;8.900;2022-08-19T12:13:33;4.65;;;4.28;;
19036;SDS011;9651;49.138;8.900;2022-08-19T12:17:36;4.32;;;4.03;;
19036;SDS011;9651;49.138;8.900;2022-08-19T12:21:39;4.75;;;4.25;;
19036;SDS011;9651;49.138;8.900;2022-08-19T12:25:43;5.80;;;4.03;;
19036;SDS011;9651;49.138;8.900;2022-08-19T12:29:51;5.25;;;4.68;;
19036;SDS011;9651;49.138;8.900;2022-08-19T12:33:53;7.38;;;4.70;;
19036;SDS011;9651;49.138;8.900;2022-08-19T12:37:55;9.02;;;5.18;;
19036;SDS011;9651;49.138;8.900;2022-08-19T12:41:57;5.90;;;4.78;;
19036;SDS011;9651;49.138;8.900;2022-08-19T12:46:00;5.70;;;5.20;;
19036;SDS011;9651;49.138;8.900;2022-08-19T12:50:02;7.47;;;5.25;;
19036;SDS011;9651;49.138;8.900;2022-08-19T12:54:08;5.88;;;5.28;;
19036;SDS011;9651;49.138;8.900;2022-08-19T12:58:10;5.60;;;5.10;;
19036;SDS011;9651;49.138;8.900;2022-08-19T13:02:14;8.63;;;5.70;;
19036;SDS011;9651;49.138;8.900;2022-08-19T13:06:16;6.20;;;5.70;;
19036;SDS011;9651;49.138;8.900;2022-08-19T13:10:19;5.53;;;5.13;;
19036;SDS011;9651;49.138;8.900;2022-08-19T13:14:22;4.90;;;4.47;;
19036;SDS011;9651;49.138;8.900;2022-08-19T13:18:25;6.35;;;5.40;;
19036;SDS011;9651;49.138;8.900;2022-08-19T13:22:27;6.78;;;4.75;;
19036;SDS011;9651;49.138;8.900;2022-08-19T13:26:29;5.32;;;4.93;;
19036;SDS011;9651;49.138;8.900;2022-08-19T13:30:31;5.60;;;4.80;;
19036;SDS011;9651;49.138;8.900;2022-08-19T13:34:52;5.75;;;5.22;;
19036;SDS011;9651;49.138;8.900;2022-08-19T13:38:54;6.05;;;4.95;;
19036;SDS011;9651;49.138;8.900;2022-08-19T13:43:00;6.00;;;5.50;;
19036;SDS011;9651;49.138;8.900;2022-08-19T13:47:03;6.18;;;5.68;;
19036;SDS011;9651;49.138;8.900;2022-08-19T13:51:08;5.75;;;5.30;;
19036;SDS011;9651;49.138;8.900;2022-08-19T13:55:11;5.00;;;4.57;;
19036;SDS011;9651;49.138;8.900;2022-08-19T13:59:14;8.90;;;5.32;;
19036;SDS011;9651;49.138;8.900;2022-08-19T14:03:16;4.68;;;4.28;;
19036;SDS011;9651;49.138;8.900;2022-08-19T14:07:19;5.57;;;5.00;;
19036;SDS011;9651;49.138;8.900;2022-08-19T14:11:23;5.57;;;5.18;;
19036;SDS011;9651;49.138;8.900;2022-08-19T14:15:25;5.68;;;4.97;;
19036;SDS011;9651;49.138;8.900;2022-08-19T14:19:28;5.55;;;5.05;;
19036;SDS011;9651;49.138;8.900;2022-08-19T14:23:32;5.32;;;4.85;;
19036;SDS011;9651;49.138;8.900;2022-08-19T14:27:34;5.30;;;4.80;;
19036;SDS011;9651;49.138;8.900;2022-08-19T14:31:37;5.15;;;4.75;;
19036;SDS011;9651;49.138;8.900;2022-08-19T14:35:41;4.88;;;4.47;;
19036;SDS011;9651;49.138;8.900;2022-08-19T14:39:46;4.82;;;4.43;;
19036;SDS011;9651;49.138;8.900;2022-08-19T14:43:48;4.97;;;4.18;;
19036;SDS011;9651;49.138;8.900;2022-08-19T14:47:51;5.95;;;4.47;;
19036;SDS011;9651;49.138;8.900;2022-08-19T14:51:53;4.75;;;3.97;;
19036;SDS011;9651;49.138;8.900;2022-08-19T14:55:58;5.32;;;4.20;;
19036;SDS011;9651;49.138;8.900;2022-08-19T15:00:00;7.00;;;3.92;;
19036;SDS011;9651;49.138;8.900;2022-08-19T15:04:03;4.32;;;3.67;;
19036;SDS011;9651;49.138;8.900;2022-08-19T15:08:05;4.50;;;4.10;;
19036;SDS011;9651;49.138;8.900;2022-08-19T15:12:08;5.82;;;4.05;;
19036;SDS011;9651;49.138;8.900;2022-08-19T15:16:10;4.68;;;4.32;;
19036;SDS011;9651;49.138;8.900;2022-08-19T15:20:15;4.43;;;4.05;;
19036;SDS011;9651;49.138;8.900;2022-08-19T15:24:18;5.05;;;4.53;;
19036;SDS011;9651;49.138;8.900;2022-08-19T15:28:22;4.45;;;4.05;;
19036;SDS011;9651;49.138;8.900;2022-08-19T15:32:26;4.75;;;4.32;;
19036;SDS011;9651;49.138;8.900;2022-08-19T15:36:29;4.15;;;3.75;;
19036;SDS011;9651;49.138;8.900;2022-08-19T15:40:31;4.47;;;4.07;;
19036;SDS011;9651;49.138;8.900;2022-08-19T15:44:34;4.43;;;4.03;;
19036;SDS011;9651;49.138;8.900;2022-08-19T15:48:36;5.18;;;4.10;;
19036;SDS011;9651;49.138;8.900;2022-08-19T15:52:43;6.65;;;4.13;;
19036;SDS011;9651;49.138;8.900;2022-08-19T15:56:47;5.53;;;5.03;;
19036;SDS011;9651;49.138;8.900;2022-08-19T16:01:08;4.15;;;3.83;;
19036;SDS011;9651;49.138;8.900;2022-08-19T16:05:33;4.35;;;3.75;;
19036;SDS011;9651;49.138;8.900;2022-08-19T16:09:52;4.20;;;3.78;;
19036;SDS011;9651;49.138;8.900;2022-08-19T16:13:54;4.05;;;3.75;;
19036;SDS011;9651;49.138;8.900;2022-08-19T16:17:58;4.75;;;4.25;;
19036;SDS011;9651;49.138;8.900;2022-08-19T16:22:01;3.65;;;3.35;;
19036;SDS011;9651;49.138;8.900;2022-08-19T16:26:04;4.30;;;4.00;;
19036;SDS011;9651;49.138;8.900;2022-08-19T16:30:08;4.00;;;3.60;;
19036;SDS011;9651;49.138;8.900;2022-08-19T16:34:12;7.60;;;5.63;;
19036;SDS011;9651;49.138;8.900;2022-08-19T16:38:14;4.57;;;4.18;;
19036;SDS011;9651;49.138;8.900;2022-08-19T16:42:16;5.13;;;4.30;;
19036;SDS011;9651;49.138;8.900;2022-08-19T16:46:18;7.25;;;3.70;;
19036;SDS011;9651;49.138;8.900;2022-08-19T16:50:22;7.53;;;4.10;;
19036;SDS011;9651;49.138;8.900;2022-08-19T16:54:24;5.22;;;4.00;;
19036;SDS011;9651;49.138;8.900;2022-08-19T16:58:28;4.22;;;3.83;;
19036;SDS011;9651;49.138;8.900;2022-08-19T17:02:33;5.25;;;3.83;;
19036;SDS011;9651;49.138;8.900;2022-08-19T17:06:37;6.97;;;6.28;;
19036;SDS011;9651;49.138;8.900;2022-08-19T17:10:39;4.88;;;4.45;;
19036;SDS011;9651;49.138;8.900;2022-08-19T17:14:43;7.60;;;5.55;;
19036;SDS011;9651;49.138;8.900;2022-08-19T17:18:45;4.68;;;4.25;;
19036;SDS011;9651;49.138;8.900;2022-08-19T17:22:53;5.95;;;4.88;;
19036;SDS011;9651;49.138;8.900;2022-08-19T17:26:55;6.75;;;5.57;;
19036;SDS011;9651;49.138;8.900;2022-08-19T17:30:59;4.80;;;4.35;;
19036;SDS011;9651;49.138;8.900;2022-08-19T17:35:01;6.88;;;5.07;;
19036;SDS011;9651;49.138;8.900;2022-08-19T17:39:05;7.38;;;6.00;;
19036;SDS011;9651;49.138;8.900;2022-08-19T17:43:07;7.45;;;6.00;;
19036;SDS011;9651;49.138;8.900;2022-08-19T17:47:09;4.97;;;4.43;;
19036;SDS011;9651;49.138;8.900;2022-08-19T17:51:12;5.50;;;4.60;;
19036;SDS011;9651;49.138;8.900;2022-08-19T17:55:17;5.22;;;4.72;;
19036;SDS011;9651;49.138;8.900;2022-08-19T17:59:20;7.03;;;4.57;;
19036;SDS011;9651;49.138;8.900;2022-08-19T18:03:22;6.90;;;5.22;;
19036;SDS011;9651;49.138;8.900;2022-08-19T18:07:24;8.50;;;5.65;;
19036;SDS011;9651;49.138;8.900;2022-08-19T18:11:27;8.18;;;6.30;;
19036;SDS011;9651;49.138;8.900;2022-08-19T18:15:29;6.47;;;5.88;;
19036;SDS011;9651;49.138;8.900;2022-08-19T18:19:35;8.32;;;7.43;;
19036;SDS011;9651;49.138;8.900;2022-08-19T18:23:37;8.05;;;7.25;;
19036;SDS011;9651;49.138;8.900;2022-08-19T18:27:41;7.55;;;6.85;;
19036;SDS011;9651;49.138;8.900;2022-08-19T18:31:43;10.18;;;7.55;;
19036;SDS011;9651;49.138;8.900;2022-08-19T18:35:47;7.50;;;6.80;;
19036;SDS011;9651;49.138;8.900;2022-08-19T18:39:51;8.80;;;7.25;;
19036;SDS011;9651;49.138;8.900;2022-08-19T18:44:12;8.52;;;7.30;;
19036;SDS011;9651;49.138;8.900;2022-08-19T18:48:31;9.75;;;7.95;;
19036;SDS011;9651;49.138;8.900;2022-08-19T18:52:50;7.93;;;6.68;;
19036;SDS011;9651;49.138;8.900;2022-08-19T18:56:52;10.23;;;7.43;;
19036;SDS011;9651;49.138;8.900;2022-08-19T19:00:56;9.07;;;7.20;;
19036;SDS011;9651;49.138;8.900;2022-08-19T19:04:59;9.40;;;7.65;;
19036;SDS011;9651;49.138;8.900;2022-08-19T19:09:01;9.90;;;6.82;;
19036;SDS011;9651;49.138;8.900;2022-08-19T19:13:04;7.18;;;6.43;;
19036;SDS011;9651;49.138;8.900;2022-08-19T19:17:08;9.32;;;7.20;;
19036;SDS011;9651;49.138;8.900;2022-08-19T19:21:12;13.38;;;7.70;;
19036;SDS011;9651;49.138;8.900;2022-08-19T19:25:13;8.32;;;6.30;;
19036;SDS011;9651;49.138;8.900;2022-08-19T19:29:16;7.20;;;6.57;;
19036;SDS011;9651;49.138;8.900;2022-08-19T19:33:20;9.00;;;7.18;;
19036;SDS011;9651;49.138;8.900;2022-08-19T19:37:22;7.78;;;6.95;;
19036;SDS011;9651;49.138;8.900;2022-08-19T19:41:24;8.05;;;7.25;;
19036;SDS011;9651;49.138;8.900;2022-08-19T19:45:26;10.70;;;8.00;;
19036;SDS011;9651;49.138;8.900;2022-08-19T19:49:30;8.40;;;7.65;;
19036;SDS011;9651;49.138;8.900;2022-08-19T19:53:32;9.43;;;6.95;;
19036;SDS011;9651;49.138;8.900;2022-08-19T19:57:34;8.88;;;7.97;;
19036;SDS011;9651;49.138;8.900;2022-08-19T20:01:38;11.65;;;6.93;;
19036;SDS011;9651;49.138;8.900;2022-08-19T20:05:46;6.80;;;6.20;;
19036;SDS011;9651;49.138;8.900;2022-08-19T20:09:48;9.27;;;6.57;;
19036;SDS011;9651;49.138;8.900;2022-08-19T20:13:50;9.13;;;6.63;;
19036;SDS011;9651;49.138;8.900;2022-08-19T20:17:52;6.75;;;6.15;;
19036;SDS011;9651;49.138;8.900;2022-08-19T20:21:56;6.45;;;5.80;;
19036;SDS011;9651;49.138;8.900;2022-08-19T20:25:58;7.68;;;5.55;;
19036;SDS011;9651;49.138;8.900;2022-08-19T20:30:00;6.30;;;5.43;;
19036;SDS011;9651;49.138;8.900;2022-08-19T20:34:04;5.65;;;5.15;;
19036;SDS011;9651;49.138;8.900;2022-08-19T20:38:07;8.23;;;5.53;;
19036;SDS011;9651;49.138;8.900;2022-08-19T20:42:09;8.23;;;5.22;;
19036;SDS011;9651;49.138;8.900;2022-08-19T20:46:11;5.32;;;4.40;;
19036;SDS011;9651;49.138;8.900;2022-08-19T20:50:14;4.97;;;4.47;;
19036;SDS011;9651;49.138;8.900;2022-08-19T20:54:18;5.75;;;4.60;;
19036;SDS011;9651;49.138;8.900;2022-08-19T20:58:21;5.53;;;4.88;;
19036;SDS011;9651;49.138;8.900;2022-08-19T21:02:24;5.53;;;4.50;;
19036;SDS011;9651;49.138;8.900;2022-08-19T21:06:26;5.32;;;4.40;;
19036;SDS011;9651;49.138;8.900;2022-08-19T21:10:29;5.05;;;4.45;;
19036;SDS011;9651;49.138;8.900;2022-08-19T21:14:31;6.10;;;4.72;;
19036;SDS011;9651;49.138;8.900;2022-08-19T21:18:33;5.22;;;4.00;;
19036;SDS011;9651;49.138;8.900;2022-08-19T21:22:35;5.35;;;4.47;;
19036;SDS011;9651;49.138;8.900;2022-08-19T21:26:39;6.88;;;4.82;;
19036;SDS011;9651;49.138;8.900;2022-08-19T21:30:41;6.00;;;4.55;;
19036;SDS011;9651;49.138;8.900;2022-08-19T21:34:43;4.88;;;4.47;;
19036;SDS011;9651;49.138;8.900;2022-08-19T21:38:45;5.70;;;4.75;;
19036;SDS011;9651;49.138;8.900;2022-08-19T21:42:49;4.60;;;4.20;;
19036;SDS011;9651;49.138;8.900;2022-08-19T21:46:51;6.18;;;4.72;;
19036;SDS011;9651;49.138;8.900;2022-08-19T21:50:53;6.25;;;4.22;;
19036;SDS011;9651;49.138;8.900;2022-08-19T21:54:55;6.38;;;4.45;;
19036;SDS011;9651;49.138;8.900;2022-08-19T21:58:58;6.78;;;4.35;;
19036;SDS011;9651;49.138;8.900;2022-08-19T22:03:00;7.15;;;4.63;;
19036;SDS011;9651;49.138;8.900;2022-08-19T22:07:02;7.00;;;4.88;;
19036;SDS011;9651;49.138;8.900;2022-08-19T22:11:05;5.38;;;4.88;;
19036;SDS011;9651;49.138;8.900;2022-08-19T22:15:10;4.80;;;4.25;;
19036;SDS011;9651;49.138;8.900;2022-08-19T22:19:13;5.80;;;4.95;;
19036;SDS011;9651;49.138;8.900;2022-08-19T22:23:15;6.18;;;4.90;;
19036;SDS011;9651;49.138;8.900;2022-08-19T22:27:18;4.75;;;4.25;;
19036;SDS011;9651;49.138;8.900;2022-08-19T22:31:22;4.90;;;4.30;;
19036;SDS011;9651;49.138;8.900;2022-08-19T22:35:24;4.22;;;3.83;;
19036;SDS011;9651;49.138;8.900;2022-08-19T22:39:28;5.78;;;3.85;;
19036;SDS011;9651;49.138;8.900;2022-08-19T22:43:30;3.53;;;3.22;;
19036;SDS011;9651;49.138;8.900;2022-08-19T22:47:34;5.43;;;3.50;;
19036;SDS011;9651;49.138;8.900;2022-08-19T22:51:37;5.38;;;3.15;;
19036;SDS011;9651;49.138;8.900;2022-08-19T22:55:55;6.60;;;3.30;;
19036;SDS011;9651;49.138;8.900;2022-08-19T22:59:58;4.68;;;3.25;;
19036;SDS011;9651;49.138;8.900;2022-08-19T23:04:02;3.53;;;3.22;;
19036;SDS011;9651;49.138;8.900;2022-08-19T23:08:04;3.50;;;3.20;;
19036;SDS011;9651;49.138;8.900;2022-08-19T23:12:06;3.50;;;3.10;;
19036;SDS011;9651;49.138;8.900;2022-08-19T23:16:08;3.05;;;2.65;;
19036;SDS011;9651;49.138;8.900;2022-08-19T23:20:13;4.53;;;2.80;;
19036;SDS011;9651;49.138;8.900;2022-08-19T23:24:16;3.58;;;3.00;;
19036;SDS011;9651;49.138;8.900;2022-08-19T23:28:18;2.88;;;2.58;;
19036;SDS011;9651;49.138;8.900;2022-08-19T23:32:38;4.65;;;2.72;;
19036;SDS011;9651;49.138;8.900;2022-08-19T23:36:42;4.50;;;3.05;;
19036;SDS011;9651;49.138;8.900;2022-08-19T23:40:45;4.47;;;2.70;;
19036;SDS011;9651;49.138;8.900;2022-08-19T23:44:47;3.33;;;2.78;;
19036;SDS011;9651;49.138;8.900;2022-08-19T23:48:49;3.13;;;2.75;;
19036;SDS011;9651;49.138;8.900;2022-08-19T23:52:55;2.28;;;2.08;;
19036;SDS011;9651;49.138;8.900;2022-08-19T23:56:58;3.25;;;2.53;;
